Terminal Aerodrome Forecast
Issued by NWS Charleston, WV

Current Version | Previous Version | Text Only | Print | Product List | Glossary Off
Versions: 1 2 3 4 5 6 7 8 9 10 11 12 13 14 15 16 17 18 19 20 21 22 23 24 25 26 27 28 29 30

000
FTUS41 KRLX 260539
TAFEKN
TAF
KEKN 260539Z 2606/2706 00000KT 4SM BR SCT030
     FM260800 00000KT 1/4SM FG VV001
     FM261200 00000KT 4SM BR BKN005
     FM261300 VRB03KT P6SM FEW020
     FM261700 30007KT P6SM SCT040
     FM270200 00000KT P6SM SKC=

USA.gov is the U.S. government's official web portal to all federal, state and local government web resources and services.